Ana Sayfa
METAR-TAF:

METAR-TAF

Havaalanları :

Molde, Norveç

Enlem: 62-45N, Boylam: 007-16E, yükseklik: 0 m

Güncel hava durumu gözlemi

Rapor saat 18:50 UTC de 28 dakika önce yapıldı.
Rüzgar batı/kuzeybatıdan 5 kt
Sıcaklık 1°C
Nem 86%
Basınç 1002 hPa
Görüş mesafesi 10 km veya daha fazla
1000 ft yükseklikte az bulutlu
1300 ft yükseklikte parçalı çok bulutlu

METAR: ENML 241850Z 30005KT 9999 FEW010 BKN013 01/M01 Q1002

Saat: 20:18 (19:18 UTC)

Tahmin

Rapor saat 17:00 UTC de 2 saat ve 18 dakika önce yapıldı.
Ayın 24'si saat 18 UTC'den ayın 24'si saat 22 UTC'ye kadar geçerli Tahmin
Rüzgar batı/kuzeybatıdan 5 kt
Görüş mesafesi 10 km veya daha fazla
1500 ft yükseklikte az bulutlu, Kümülonimbus.
3000 ft yükseklikte parçalı bulutlu
Geçici
ayın 24'si saat 18 UTC'den ayın 24'si saat 22 UTC'ye kadar
Görüş mesafesi: 1000 m
800 ft yükseklikte
kar sağanakları, yağmur

TAF: ENML 241700Z 2418/2422 30005KT 9999 FEW015CB SCT030 TEMPO 2418/2422 1000 SHSNRA VV008

4.000'den fazla havaalanı için hava durumu gözlemleri ve tahminleri (METAR ve TAF raporları).

Kullanılabilir istasyonlar harita üzerinde sarı ve kırmızı noktalarla gösterilir.

İstasyonun adını görmek için fareyi noktanın üzerinde gezdirin.

Sonrasında hava gözlem ve tahminlerini görmek için tıklayın.

Haritayı değiştirmek için: yaklaştırmak için siyah artı işaretli yeşil düğmeye ve uzaklaştırmak için de eksi işaretli düğmeye hızla tıklayın; bitişik haritalar için yeşil okları kullanın.


METAR-TAF: